Terminal Aerodrome Forecast
Issued by NWS Dodge City, KS

Home | Current Version | Previous Version | Graphics & Text | Print | Product List | Glossary Off
Versions: 1 2 3 4 5 6 7 8 9 10 11 12 13 14 15 16 17 18 19 20 21 22 23 24 25 26 27 28 29 30 31 32 33 34

000
FTUS43 KDDC 231139
TAFDDC
TAF
KDDC 231139Z 2312/2412 33015G23KT P6SM BKN030
     FM231600 33024G34KT P6SM OVC030
     FM231900 35028G38KT 5SM -SN BR BKN012 OVC025
     FM240100 34018G26KT P6SM OVC020=

USA.gov is the U.S. government's official web portal to all federal, state and local government web resources and services.